Airfield :
LOGIN :

Register | Disclaimer

   EN    FR    IT 

 










Legend :    VFR   Marginal VFR   IFR   Intensive IFR   Very Intensive IFR
Visi :
Ceiling :
>= 8 km
>= 3000ft
5 to 8 km
1000 to 3000 ft
1500m to 5 km
500 to 1000 ft
800 to 1500m
200 to 500 ft
< 800m
< 200 ft
Symbols :   Thunderstorms  Fog  Heavy snow  Heavy precipitations  Wind > 20 kt
SIGMETs :     Misc.  Thunderstorms  Icing  Turbulence  Mountain Waves  Volcanic Ashes







- Airport Elevation : 274 ft
- IATA code : PUY


LDPL - Pula

CURRENT METAR :
  • 160630Z VRB01KT CAVOK 20/16 Q1019 NOSIG

EXPIRED METARs :
  • 160600Z VRB02KT CAVOK 18/16 Q1019 NOSIG
  • 160530Z VRB02KT CAVOK 17/14 Q1019 NOSIG
  • 160500Z 02002KT 9999 MIFG NSC 16/14 Q1019 NOSIG
  • 160430Z VRB02KT CAVOK 15/14 Q1019 NOSIG
  • 160400Z 07001KT CAVOK 14/13 Q1019 NOSIG

TAF TAF LDPL
Valid from the 16 at 06:00 until the 17 at 06:00 UTC


160525Z 1606/1706 VRB02KT CAVOK TX26/1612Z TN16/1704Z
BECMG 1610/1612 27008KT
BECMG 1618/1620 VRB02KT
No reported NOTAMs for that airfield.



MET'MAP, your aeronautical weather chart ! - Copyright ORBIFLY December 2007 - Disclaimer

ORBIFLY MET'MAP TEAM :

Programming & Development : Alexandra Zaïnal
Concept & Development : Baudouin d'Aumeries
Co-Development & Prog : Marc-Olivier Méhu
Technical & hardware support : Manuel Goepfert

Contact : metmap@orbifly.com




SOURCES & CREDITS :

   NOAA